Time;durP1;ratioP1;P1;durP2;ratioP2;P2;SDS_P1;SDS_P2;PMS_P1;PMS_P2;Temp;Humidity;BMP_temperature;BMP_pressure;BME280_temperature;BME280_humidity;BME280_pressure;Samples;Min_cycle;Max_cycle;Signal;HPM_P1;HPM_P2
2023/09/08 00:01:51;;;;;;;27.58;18.90;;;;;;;20.48;100.00;105284.53;5069271;28;20059;-69
2023/09/08 00:04:16;;;;;;;50.97;27.23;;;;;;;19.49;100.00;105131.97;5070259;28;20035;-70
2023/09/08 00:06:42;;;;;;;48.10;27.52;;;;;;;20.01;100.00;105205.22;5074885;28;20024;-70
2023/09/08 00:09:08;;;;;;;44.78;29.20;;;;;;;19.96;100.00;105237.91;5076648;28;20543;-69
2023/09/08 00:11:33;;;;;;;45.22;26.80;;;;;;;20.39;100.00;105290.41;5074386;28;20028;-69
2023/09/08 00:13:58;;;;;;;46.97;28.65;;;;;;;19.68;100.00;105192.59;5074340;28;20036;-70
2023/09/08 00:16:24;;;;;;;36.95;23.42;;;;;;;19.48;100.00;105222.34;5073135;28;20029;-71
2023/09/08 00:18:50;;;;;;;27.73;19.20;;;;;;;19.25;100.00;105213.25;5074285;28;20028;-71
2023/09/08 00:21:15;;;;;;;30.13;18.65;;;;;;;19.34;100.00;105259.94;5074266;28;20084;-69
2023/09/08 00:23:41;;;;;;;30.88;16.15;;;;;;;19.71;100.00;105389.03;5073882;28;20024;-69
2023/09/08 00:26:06;;;;;;;23.17;12.63;;;;;;;19.36;100.00;105361.56;5073773;28;20043;-69
2023/09/08 00:28:32;;;;;;;18.15;10.88;;;;;;;19.52;100.00;105373.97;5074107;28;20541;-70
2023/09/08 00:30:59;;;;;;;14.02;10.07;;;;;;;19.18;100.00;105186.44;5073023;28;20036;-69
2023/09/08 00:33:25;;;;;;;15.13;9.80;;;;;;;18.86;100.00;105203.84;5072814;28;20119;-69
2023/09/08 00:35:51;;;;;;;15.55;9.68;;;;;;;18.90;100.00;103982.69;5073794;28;20025;-70
2023/09/08 00:38:17;;;;;;;16.55;10.00;;;;;;;19.74;100.00;104064.53;5073970;28;20028;-69
2023/09/08 00:40:42;;;;;;;14.35;9.52;;;;;;;19.36;100.00;104065.38;5060798;28;20029;-70
2023/09/08 00:43:08;;;;;;;14.68;10.27;;;;;;;19.62;100.00;104079.16;5053805;28;20021;-69
2023/09/08 00:45:38;;;;;;;16.23;10.50;;;;;;;19.16;100.00;104061.84;5052230;28;20083;-70
2023/09/08 00:48:04;;;;;;;21.05;11.02;;;;;;;19.65;100.00;104092.94;5053583;28;20549;-70
2023/09/08 00:50:30;;;;;;;20.02;11.95;;;;;;;19.59;100.00;104143.75;5051483;28;20033;-69
2023/09/08 00:52:56;;;;;;;18.90;11.32;;;;;;;19.54;100.00;104179.00;5068749;28;20033;-69
2023/09/08 00:55:21;;;;;;;18.40;11.68;;;;;;;19.05;100.00;104067.00;5053144;28;20556;-69
2023/09/08 00:57:46;;;;;;;23.20;11.18;;;;;;;19.58;100.00;104167.84;5053534;28;20108;-68
2023/09/08 01:00:12;;;;;;;15.60;11.07;;;;;;;19.43;100.00;104160.06;5053574;28;20060;-70
2023/09/08 01:02:38;;;;;;;19.13;11.18;;;;;;;19.66;100.00;104166.13;5068756;28;20037;-70
2023/09/08 01:05:04;;;;;;;20.30;11.80;;;;;;;19.67;100.00;104140.28;5052991;28;20044;-69
2023/09/08 01:07:30;;;;;;;22.23;12.05;;;;;;;19.29;100.00;104117.81;5053053;28;20407;-69
2023/09/08 01:09:56;;;;;;;19.23;10.90;;;;;;;19.18;100.00;104084.22;5052045;28;20032;-70
2023/09/08 01:12:22;;;;;;;19.63;11.27;;;;;;;18.88;100.00;104024.81;5053472;28;20028;-69
2023/09/08 01:14:47;;;;;;;18.70;10.50;;;;;;;19.26;100.00;104025.75;5051650;28;20518;-70
2023/09/08 01:17:12;;;;;;;18.65;10.70;;;;;;;19.25;100.00;104003.38;5052783;28;20065;-70
2023/09/08 01:19:38;;;;;;;20.17;11.50;;;;;;;18.64;100.00;103958.53;5052895;28;20064;-70
2023/09/08 01:22:39;;;;;;;21.85;11.02;;;;;;;19.37;100.00;104064.53;5068066;28;20051;-69
2023/09/08 01:25:17;;;;;;;22.50;11.50;;;;;;;19.35;100.00;104066.25;5051657;28;20127;-71
2023/09/08 01:27:48;;;;;;;17.15;12.30;;;;;;;19.15;100.00;104030.03;5053233;28;20037;-69
2023/09/08 01:30:15;;;;;;;20.60;12.75;;;;;;;18.98;100.00;103570.78;5052912;28;20090;-70
2023/09/08 01:32:41;;;;;;;16.90;11.43;;;;;;;18.65;100.00;103469.53;5051368;28;20127;-70
2023/09/08 01:35:07;;;;;;;16.95;11.23;;;;;;;18.91;100.00;103442.72;5053128;28;20033;-70
2023/09/08 01:37:33;;;;;;;15.60;9.85;;;;;;;18.62;100.00;103454.91;5052194;28;20111;-69
2023/09/08 01:39:58;;;;;;;14.98;9.07;;;;;;;19.10;100.00;103533.75;5052867;28;20443;-69
2023/09/08 01:42:23;;;;;;;14.77;9.05;;;;;;;18.84;100.00;103490.03;5052794;28;20561;-70
2023/09/08 01:44:49;;;;;;;12.93;9.43;;;;;;;18.61;100.00;103481.59;5053100;28;20040;-70
2023/09/08 01:47:15;;;;;;;13.73;9.88;;;;;;;18.82;100.00;103521.84;5050754;28;20036;-69
2023/09/08 01:49:40;;;;;;;13.32;10.20;;;;;;;18.77;100.00;103511.59;5052588;28;20502;-69
2023/09/08 01:52:06;;;;;;;16.90;10.43;;;;;;;18.83;100.00;103523.59;5067989;28;20060;-69
2023/09/08 01:54:31;;;;;;;17.33;10.20;;;;;;;18.84;100.00;103530.44;5051166;28;20033;-69
2023/09/08 01:56:57;;;;;;;14.25;10.15;;;;;;;18.65;100.00;103491.00;5052118;28;20063;-69
2023/09/08 01:59:22;;;;;;;14.95;10.63;;;;;;;18.34;100.00;103457.63;5052151;28;20029;-69
2023/09/08 02:01:47;;;;;;;15.57;10.70;;;;;;;18.37;100.00;103399.19;5050469;28;20025;-69
2023/09/08 02:04:13;;;;;;;14.25;10.88;;;;;;;18.10;100.00;103324.63;5067804;28;20033;-69
2023/09/08 02:06:38;;;;;;;17.58;11.00;;;;;;;18.18;100.00;103317.72;5050553;28;20098;-70
2023/09/08 02:09:04;;;;;;;13.77;10.23;;;;;;;18.55;100.00;103404.28;5052044;28;20094;-70
2023/09/08 02:11:29;;;;;;;15.50;10.75;;;;;;;17.93;100.00;103347.88;5068340;28;20033;-70
2023/09/08 02:13:54;;;;;;;13.68;10.02;;;;;;;18.26;100.00;103388.09;5052820;28;20427;-70
2023/09/08 02:16:20;;;;;;;14.65;10.20;;;;;;;18.30;100.00;103329.66;5052305;28;20112;-70
2023/09/08 02:18:45;;;;;;;12.50;9.82;;;;;;;18.39;100.00;103319.28;5050501;28;20557;-70
2023/09/08 02:21:11;;;;;;;13.98;10.70;;;;;;;18.32;100.00;103295.28;5051853;28;20044;-70
2023/09/08 02:23:38;;;;;;;14.48;10.20;;;;;;;18.50;100.00;103294.34;5050653;28;20565;-70
2023/09/08 02:26:04;;;;;;;15.90;10.40;;;;;;;18.36;100.00;103289.22;5051924;28;20033;-69
2023/09/08 02:28:29;;;;;;;11.65;9.77;;;;;;;18.47;100.00;103341.59;5051083;28;20087;-71
2023/09/08 02:30:55;;;;;;;13.55;9.73;;;;;;;18.23;100.00;103315.09;5049678;28;20029;-70
2023/09/08 02:33:20;;;;;;;11.43;8.75;;;;;;;18.08;100.00;103324.59;5065236;28;20457;-70
2023/09/08 02:35:46;;;;;;;13.63;9.80;;;;;;;18.04;100.00;103315.19;5062674;28;20123;-70
2023/09/08 02:38:11;;;;;;;13.95;9.20;;;;;;;17.66;100.00;103182.38;5070104;28;20036;-71
2023/09/08 02:40:37;;;;;;;13.40;9.05;;;;;;;18.18;100.00;103230.13;5071608;28;20029;-69
2023/09/08 02:43:03;;;;;;;10.55;8.75;;;;;;;18.17;100.00;103202.63;5071096;28;20512;-69
2023/09/08 02:45:28;;;;;;;11.18;9.10;;;;;;;17.65;100.00;103109.44;5071269;28;20441;-70
2023/09/08 02:47:54;;;;;;;9.27;8.05;;;;;;;17.86;100.00;103098.16;5071486;28;20028;-69
2023/09/08 02:50:20;;;;;;;14.27;9.63;;;;;;;18.04;100.00;103144.38;5071759;28;20040;-70
2023/09/08 02:52:45;;;;;;;14.70;11.05;;;;;;;17.33;100.00;103076.19;5071319;28;20086;-70
2023/09/08 02:55:11;;;;;;;13.38;10.35;;;;;;;17.71;100.00;103082.81;5070932;28;20500;-70
2023/09/08 02:57:37;;;;;;;13.85;10.60;;;;;;;17.73;100.00;103014.16;5071051;28;20064;-70
2023/09/08 03:00:04;;;;;;;11.35;9.82;;;;;;;17.31;100.00;102933.84;5070972;28;20104;-69
2023/09/08 03:02:30;;;;;;;12.60;10.30;;;;;;;17.51;100.00;102876.28;5071433;28;20028;-69
2023/09/08 03:04:56;;;;;;;15.55;10.60;;;;;;;17.83;100.00;102872.47;5070785;28;20044;-69
2023/09/08 03:07:21;;;;;;;14.93;10.10;;;;;;;17.76;100.00;102829.66;5071233;28;20235;-70
2023/09/08 03:09:46;;;;;;;16.80;10.30;;;;;;;17.38;100.00;102757.16;5070847;28;20040;-70
2023/09/08 03:12:12;;;;;;;12.85;9.40;;;;;;;17.53;100.00;102847.06;5070795;28;20028;-69
2023/09/08 03:14:38;;;;;;;13.07;9.88;;;;;;;17.47;100.00;102727.91;5070611;28;20028;-69
2023/09/08 03:17:03;;;;;;;13.65;10.35;;;;;;;17.77;100.00;102835.66;5071205;28;20070;-70
2023/09/08 03:19:29;;;;;;;15.20;10.77;;;;;;;17.73;100.00;102682.13;5070715;28;20517;-71
2023/09/08 03:21:54;;;;;;;14.60;10.57;;;;;;;17.62;100.00;102637.69;5071097;28;20049;-70
2023/09/08 03:24:19;;;;;;;11.80;9.93;;;;;;;17.39;100.00;102365.31;5072198;28;20472;-70
2023/09/08 03:26:45;;;;;;;10.13;9.10;;;;;;;17.80;100.00;102030.00;5084354;28;20476;-70
2023/09/08 03:29:10;;;;;;;15.80;9.55;;;;;;;17.79;100.00;101977.69;5077782;28;20039;-69
2023/09/08 03:31:36;;;;;;;12.93;9.40;;;;;;;18.01;100.00;101945.34;5061408;28;20032;-69
2023/09/08 03:34:02;;;;;;;14.77;9.43;;;;;;;17.90;100.00;101864.16;5072755;28;20071;-71
2023/09/08 03:36:27;;;;;;;10.27;7.90;;;;;;;18.26;100.00;101929.22;5091054;28;20050;-72
2023/09/08 03:38:52;;;;;;;10.60;8.55;;;;;;;18.18;100.00;101999.00;5075223;28;20036;-73
2023/09/08 03:41:18;;;;;;;13.95;8.05;;;;;;;18.59;100.00;102099.22;5070040;28;20036;-71
2023/09/08 03:43:43;;;;;;;10.35;7.28;;;;;;;18.50;100.00;102205.09;5070090;28;20020;-69
2023/09/08 03:46:09;;;;;;;10.48;7.22;;;;;;;18.48;100.00;102340.00;5070517;28;20032;-70
2023/09/08 03:48:34;;;;;;;9.32;7.07;;;;;;;18.59;100.00;102670.47;5070275;28;20425;-72
2023/09/08 03:50:59;;;;;;;11.88;7.63;;;;;;;18.03;100.00;102766.66;5069823;28;20067;-72
2023/09/08 03:53:25;;;;;;;9.25;8.23;;;;;;;18.02;100.00;103156.41;5070809;28;20121;-73
2023/09/08 03:55:51;;;;;;;14.43;8.15;;;;;;;17.96;100.00;103220.81;5070097;28;20551;-72
2023/09/08 03:58:16;;;;;;;11.95;8.15;;;;;;;18.14;100.00;103244.72;5070314;28;20025;-76
2023/09/08 04:00:42;;;;;;;17.13;7.90;;;;;;;18.27;100.00;103293.59;5053021;28;20766;-77
2023/09/08 04:03:08;;;;;;;12.85;7.82;;;;;;;17.82;100.00;103328.19;5070490;28;20029;-76
2023/09/08 04:05:34;;;;;;;15.48;8.20;;;;;;;17.97;100.00;103411.38;5071609;28;20033;-77
2023/09/08 04:07:59;;;;;;;11.90;8.10;;;;;;;17.92;100.00;103438.00;5069877;28;20046;-77
2023/09/08 04:10:25;;;;;;;11.90;7.15;;;;;;;17.58;100.00;103418.34;5071140;28;20479;-74
2023/09/08 04:12:50;;;;;;;10.23;6.72;;;;;;;17.48;100.00;103443.19;5070707;28;20513;-77
2023/09/08 04:15:16;;;;;;;9.07;6.63;;;;;;;17.88;100.00;103527.28;5070379;28;20540;-76
2023/09/08 04:17:41;;;;;;;9.85;7.00;;;;;;;17.57;100.00;103466.38;5073910;28;20055;-74
2023/09/08 04:20:08;;;;;;;7.28;6.35;;;;;;;17.90;100.00;103561.63;5077726;28;20425;-75
2023/09/08 04:22:33;;;;;;;8.40;6.35;;;;;;;17.90;100.00;103576.22;5077087;28;20097;-76
2023/09/08 04:24:59;;;;;;;7.55;6.35;;;;;;;17.78;100.00;103568.47;5071652;28;20107;-75
2023/09/08 04:27:24;;;;;;;9.75;6.30;;;;;;;17.94;100.00;103632.88;5070995;28;20037;-74
2023/09/08 04:29:50;;;;;;;10.48;6.13;;;;;;;17.96;100.00;103625.13;5070275;28;20036;-73
2023/09/08 04:32:15;;;;;;;10.88;6.60;;;;;;;18.23;100.00;103655.16;5070873;28;20051;-74
2023/09/08 04:34:41;;;;;;;12.40;6.57;;;;;;;18.33;100.00;103650.03;5070003;28;20448;-73
2023/09/08 04:37:08;;;;;;;10.88;6.38;;;;;;;18.02;100.00;103658.63;5070963;28;20048;-73
2023/09/08 04:39:35;;;;;;;14.93;6.68;;;;;;;18.62;100.00;103702.41;5070662;28;20032;-74
2023/09/08 04:42:00;;;;;;;14.30;6.90;;;;;;;18.50;100.00;103684.38;5057586;28;20055;-75
2023/09/08 04:44:26;;;;;;;11.52;7.25;;;;;;;18.67;100.00;103756.56;5058383;28;20495;-74
2023/09/08 04:46:52;;;;;;;18.10;7.75;;;;;;;18.83;100.00;103846.84;5082734;28;20130;-76
2023/09/08 04:49:18;;;;;;;11.35;6.63;;;;;;;20.26;100.00;103853.38;5065570;28;20036;-73
2023/09/08 04:51:44;;;;;;;15.75;7.30;;;;;;;18.82;100.00;103900.97;5069948;28;20103;-77
2023/09/08 04:54:10;;;;;;;16.70;7.60;;;;;;;19.27;100.00;103923.38;5074288;28;20032;-79
2023/09/08 04:56:35;;;;;;;16.40;7.30;;;;;;;18.75;100.00;103825.34;5075075;28;20040;-78
2023/09/08 04:59:01;;;;;;;13.48;7.28;;;;;;;19.36;100.00;103918.22;5074768;28;20035;-79
2023/09/08 05:01:32;;;;;;;14.32;7.72;;;;;;;19.13;100.00;103833.06;5074119;28;20070;-76
2023/09/08 05:04:01;;;;;;;14.32;7.15;;;;;;;19.24;100.00;103820.97;5073563;28;20033;-76
2023/09/08 05:06:27;;;;;;;14.13;7.10;;;;;;;19.71;100.00;103893.19;5074026;28;20071;-80
2023/09/08 05:08:52;;;;;;;14.32;6.88;;;;;;;20.03;100.00;103873.25;5074811;28;20549;-79
2023/09/08 05:11:19;;;;;;;13.57;7.25;;;;;;;20.03;100.00;103924.06;5074623;28;20043;-77
2023/09/08 05:13:45;;;;;;;17.48;7.50;;;;;;;20.09;100.00;103926.63;5056884;28;20043;-76
2023/09/08 05:16:11;;;;;;;14.63;7.10;;;;;;;20.92;100.00;104614.69;5073667;28;20036;-77
2023/09/08 05:18:38;;;;;;;16.88;7.32;;;;;;;21.20;100.00;104427.47;5055869;28;20047;-76
2023/09/08 05:21:04;;;;;;;12.23;6.55;;;;;;;21.08;100.00;104273.00;5055327;28;20052;-77
2023/09/08 05:23:29;;;;;;;12.60;6.63;;;;;;;21.65;100.00;104195.91;5056425;28;20413;-75
2023/09/08 05:25:55;;;;;;;9.98;6.18;;;;;;;22.05;100.00;103998.56;5055733;28;20035;-76
2023/09/08 05:28:20;;;;;;;12.32;6.93;;;;;;;21.83;100.00;103648.94;5073162;28;20037;-76
2023/09/08 05:30:46;;;;;;;11.88;6.40;;;;;;;22.41;100.00;103385.06;5073278;28;20033;-76
2023/09/08 05:33:11;;;;;;;12.63;6.43;;;;;;;21.97;100.00;102839.13;5073679;28;20028;-76
2023/09/08 05:35:37;;;;;;;11.80;6.25;;;;;;;22.60;100.00;102814.75;5074311;28;20028;-77
2023/09/08 05:38:02;;;;;;;13.80;6.45;;;;;;;23.03;100.00;102818.47;5073670;28;20032;-75
2023/09/08 05:40:28;;;;;;;13.60;5.97;;;;;;;22.83;100.00;102750.81;5073464;28;20029;-75
2023/09/08 05:42:53;;;;;;;12.55;6.18;;;;;;;23.25;100.00;102650.59;5055971;28;20036;-77
2023/09/08 05:45:19;;;;;;;13.23;5.28;;;;;;;23.23;100.00;102472.41;5073634;28;20038;-80
2023/09/08 05:47:44;;;;;;;11.73;5.97;;;;;;;23.78;100.00;102411.22;5055758;28;20453;-80
2023/09/08 05:50:10;;;;;;;12.05;5.57;;;;;;;23.78;100.00;102344.50;5074312;28;20028;-80
2023/09/08 05:52:36;;;;;;;10.27;6.22;;;;;;;23.92;100.00;102251.13;5073412;28;20036;-80
2023/09/08 05:55:01;;;;;;;11.82;5.38;;;;;;;24.13;100.00;102197.28;5073873;28;20082;-81
2023/09/08 05:57:27;;;;;;;12.68;6.18;;;;;;;24.16;100.00;102132.13;5073336;28;20036;-78
2023/09/08 05:59:52;;;;;;;10.20;5.50;;;;;;;24.07;100.00;101946.25;5056365;28;20028;-82
2023/09/08 06:02:18;;;;;;;10.25;5.50;;;;;;;24.58;100.00;101874.94;5056800;28;20025;-84
2023/09/08 06:04:44;;;;;;;9.32;5.72;;;;;;;24.72;100.00;101789.16;5073051;28;20039;-83
2023/09/08 06:07:09;;;;;;;10.82;4.68;;;;;;;24.78;100.00;101652.66;5073893;28;20430;-81
2023/09/08 06:09:34;;;;;;;10.38;6.15;;;;;;;25.10;100.00;101624.66;5073949;28;20032;-85
2023/09/08 06:12:00;;;;;;;13.20;6.03;;;;;;;25.19;100.00;101600.66;5072997;28;20040;-83
2023/09/08 06:14:25;;;;;;;8.65;5.15;;;;;;;25.69;100.00;101590.47;5073299;28;20028;-82
2023/09/08 06:16:51;;;;;;;11.05;4.68;;;;;;;25.36;100.00;101577.81;5073753;28;20060;-82
2023/09/08 06:19:16;;;;;;;6.90;4.60;;;;;;;25.22;100.00;101488.44;5056058;28;20032;-83
2023/09/08 06:21:42;;;;;;;6.10;3.88;;;;;;;25.56;100.00;101481.00;5073602;28;20432;-84
2023/09/08 06:24:07;;;;;;;7.68;3.88;;;;;;;25.98;100.00;101460.78;5066711;28;20035;-80
2023/09/08 06:26:33;;;;;;;9.27;4.30;;;;;;;25.79;100.00;101383.84;5090350;28;20035;-80
2023/09/08 06:28:58;;;;;;;7.85;4.40;;;;;;;26.26;100.00;101406.66;5056819;28;20494;-80
2023/09/08 06:31:24;;;;;;;12.60;5.43;;;;;;;25.93;100.00;101424.59;5056572;28;20478;-80
2023/09/08 06:33:51;;;;;;;9.15;5.03;;;;;;;26.69;100.00;101408.81;5073742;28;20040;-80
2023/09/08 06:36:20;;;;;;;10.02;5.10;;;;;;;26.68;100.00;101408.00;5056239;28;20028;-81
2023/09/08 06:38:45;;;;;;;11.50;4.43;;;;;;;26.47;100.00;101341.66;5071499;28;20032;-80
2023/09/08 06:41:11;;;;;;;10.88;4.50;;;;;;;26.85;100.00;101331.06;5073039;28;20039;-81
2023/09/08 06:43:37;;;;;;;6.28;3.97;;;;;;;27.43;100.00;101378.03;5072330;28;20085;-78
2023/09/08 06:46:02;;;;;;;7.43;4.10;;;;;;;27.12;100.00;101389.91;5085772;28;20088;-79
2023/09/08 06:48:29;;;;;;;6.97;3.70;;;;;;;27.14;100.00;101356.69;5088548;28;20024;-79
2023/09/08 06:50:56;;;;;;;5.85;3.08;;;;;;;27.20;100.00;101369.28;5055398;28;20043;-80
2023/09/08 06:53:22;;;;;;;6.35;3.75;;;;;;;27.44;100.00;101362.25;5054838;28;20033;-78
2023/09/08 06:55:47;;;;;;;7.03;3.25;;;;;;;26.98;100.00;101381.47;5054416;28;20031;-79
2023/09/08 06:58:14;;;;;;;5.13;3.28;;;;;;;26.89;100.00;101369.91;5072587;28;20063;-80
2023/09/08 07:00:40;;;;;;;5.15;3.55;;;;;;;26.82;100.00;101363.44;5073273;28;20060;-79
2023/09/08 07:03:05;;;;;;;5.53;3.35;;;;;;;27.03;100.00;101321.88;5073211;28;20448;-79
2023/09/08 07:05:31;;;;;;;9.45;4.03;;;;;;;27.31;100.00;101295.31;5055613;28;20112;-82
2023/09/08 07:07:56;;;;;;;5.13;3.47;;;;;;;27.32;100.00;101295.19;5071674;28;20078;-79
2023/09/08 07:10:22;;;;;;;7.55;4.13;;;;;;;27.76;100.00;101327.56;5056600;28;20471;-77
2023/09/08 07:12:48;;;;;;;12.32;4.70;;;;;;;28.00;100.00;101242.78;5052164;28;20116;-80
2023/09/08 07:15:13;;;;;;;5.88;3.65;;;;;;;27.66;100.00;101269.94;5051191;28;20048;-80
2023/09/08 07:17:39;;;;;;;5.13;3.80;;;;;;;27.50;100.00;101159.69;5051222;28;20063;-79
2023/09/08 07:20:05;;;;;;;8.73;5.03;;;;;;;27.77;100.00;101248.16;5051514;28;20029;-84
2023/09/08 07:22:31;;;;;;;9.30;5.00;;;;;;;28.61;100.00;101215.06;5051240;28;20060;-83
2023/09/08 07:24:56;;;;;;;8.07;4.13;;;;;;;27.89;100.00;101200.94;5052287;28;20448;-84
2023/09/08 07:27:21;;;;;;;6.68;3.90;;;;;;;27.89;100.00;101150.44;5052656;28;20033;-82
2023/09/08 07:29:49;;;;;;;5.93;4.10;;;;;;;28.16;100.00;101163.91;5051846;28;20029;-80
2023/09/08 07:32:15;;;;;;;5.25;4.10;;;;;;;28.87;100.00;101194.56;5052704;28;20025;-80
2023/09/08 07:34:41;;;;;;;7.50;4.03;;;;;;;28.27;100.00;101193.44;5052571;28;20036;-81
2023/09/08 07:37:06;;;;;;;6.78;3.85;;;;;;;28.26;100.00;101122.94;5051974;28;20040;-81
2023/09/08 07:39:32;;;;;;;7.50;3.85;;;;;;;28.03;100.00;101189.38;5050864;28;20109;-80
2023/09/08 07:41:58;;;;;;;5.72;4.22;;;;;;;28.82;100.00;101181.03;5052232;28;20036;-79
2023/09/08 07:44:24;;;;;;;12.50;4.53;;;;;;;29.22;100.00;101150.47;5071235;28;20036;-74
2023/09/08 07:46:51;;;;;;;7.38;4.63;;;;;;;28.94;100.00;101180.78;5054380;28;20036;-80
2023/09/08 07:49:19;;;;;;;4.97;3.75;;;;;;;29.29;100.00;101164.69;5072373;28;20025;-77
2023/09/08 07:51:44;;;;;;;8.68;4.38;;;;;;;28.93;100.00;101139.84;5053745;28;20041;-81
2023/09/08 07:54:10;;;;;;;7.07;3.80;;;;;;;29.17;100.00;101160.53;5053868;28;20039;-79
2023/09/08 07:56:35;;;;;;;6.45;3.83;;;;;;;28.65;100.00;101127.47;5073866;28;20036;-80
2023/09/08 07:59:01;;;;;;;7.22;4.00;;;;;;;28.94;100.00;101078.63;5071049;28;20029;-79
2023/09/08 08:01:26;;;;;;;6.68;4.10;;;;;;;29.01;100.00;101176.72;5070563;28;20024;-82
2023/09/08 08:03:51;;;;;;;7.50;3.90;;;;;;;29.51;100.00;101142.69;5072262;28;20466;-80
2023/09/08 08:06:17;;;;;;;8.55;3.97;;;;;;;29.23;100.00;101169.63;5054350;28;20465;-80
2023/09/08 08:08:43;;;;;;;5.72;3.80;;;;;;;29.50;100.00;101162.81;5070610;28;20595;-80
2023/09/08 08:11:11;;;;;;;7.50;3.60;;;;;;;29.16;100.00;101171.16;5070903;28;20031;-79
2023/09/08 08:13:36;;;;;;;6.20;4.30;;;;;;;29.05;100.00;101164.16;5071381;28;20048;-78
2023/09/08 08:16:02;;;;;;;9.95;4.15;;;;;;;29.18;100.00;101103.72;5071955;28;20115;-81
2023/09/08 08:18:27;;;;;;;6.53;4.18;;;;;;;28.81;100.00;101161.03;5072324;28;20033;-79
2023/09/08 08:20:53;;;;;;;5.35;3.80;;;;;;;29.85;100.00;101092.31;5070800;28;20053;-79
2023/09/08 08:23:18;;;;;;;5.68;3.75;;;;;;;29.04;100.00;101165.94;5070397;28;20502;-80
2023/09/08 08:25:43;;;;;;;5.35;4.03;;;;;;;29.41;100.00;101152.31;5057722;28;20174;-80
2023/09/08 08:28:09;;;;;;;6.07;3.90;;;;;;;29.25;100.00;101142.34;5074166;28;20051;-81
2023/09/08 08:30:35;;;;;;;6.95;4.28;;;;;;;28.91;100.00;101160.13;5083669;28;20036;-81
2023/09/08 08:33:01;;;;;;;7.93;4.18;;;;;;;28.26;100.00;101146.47;5084868;28;20031;-80
2023/09/08 08:35:26;;;;;;;6.10;3.47;;;;;;;29.18;100.00;101138.59;5074962;28;20025;-81
2023/09/08 08:37:52;;;;;;;6.35;4.10;;;;;;;28.19;100.00;101156.63;5074320;28;20024;-77
2023/09/08 08:40:17;;;;;;;6.85;4.28;;;;;;;27.33;100.00;101082.66;5057757;28;20033;-78
2023/09/08 08:42:44;;;;;;;8.10;4.25;;;;;;;27.79;100.00;101181.69;5074572;28;20066;-78
2023/09/08 08:45:11;;;;;;;9.68;4.50;;;;;;;28.00;100.00;101151.25;5075781;28;20039;-79
2023/09/08 08:47:37;;;;;;;5.38;4.07;;;;;;;27.99;100.00;101149.56;5074464;28;20052;-78
2023/09/08 08:50:04;;;;;;;7.00;4.03;;;;;;;27.69;100.00;101148.59;5075283;28;20079;-78
2023/09/08 08:52:29;;;;;;;4.57;3.90;;;;;;;29.06;100.00;101111.63;5075318;28;20486;-79
2023/09/08 08:54:56;;;;;;;6.20;4.30;;;;;;;30.34;100.00;101061.59;5057408;28;20043;-79
2023/09/08 08:57:27;;;;;;;10.57;4.60;;;;;;;30.08;100.00;101094.66;5075193;28;20514;-79
2023/09/08 08:59:52;;;;;;;7.80;3.75;;;;;;;29.50;100.00;101033.50;5074116;28;20115;-79
2023/09/08 09:02:21;;;;;;;6.85;4.10;;;;;;;30.43;100.00;101060.75;5073725;28;20494;-77
2023/09/08 09:04:47;;;;;;;8.90;4.25;;;;;;;30.96;100.00;101064.38;5075273;28;20056;-76
2023/09/08 09:07:13;;;;;;;7.65;4.72;;;;;;;30.21;100.00;101089.94;5073572;28;20028;-77
2023/09/08 09:09:40;;;;;;;6.75;4.80;;;;;;;31.21;100.00;101047.09;5073482;28;20028;-74
2023/09/08 09:12:06;;;;;;;10.10;5.78;;;;;;;30.14;100.00;101068.69;5074838;28;20028;-77
2023/09/08 09:14:34;;;;;;;7.82;4.60;;;;;;;30.54;100.00;101078.97;5056820;28;20128;-77
2023/09/08 09:17:01;;;;;;;10.43;4.40;;;;;;;30.25;100.00;101081.63;5057297;28;20067;-80
2023/09/08 09:19:31;;;;;;;7.75;4.10;;;;;;;29.84;100.00;101006.72;5074294;28;20028;-76
2023/09/08 09:21:58;;;;;;;7.17;4.53;;;;;;;30.46;100.00;101019.28;5073536;28;20071;-78
2023/09/08 09:24:32;;;;;;;13.23;4.35;;;;;;;30.74;100.00;101065.59;5074666;28;20113;-75
2023/09/08 09:26:58;;;;;;;6.60;4.50;;;;;;;30.11;100.00;101097.81;5073397;28;20140;-75
2023/09/08 09:29:24;;;;;;;5.25;4.75;;;;;;;29.09;100.00;101123.63;5073336;28;20033;-76
2023/09/08 09:31:55;;;;;;;6.30;4.80;;;;;;;29.21;100.00;101054.47;5074105;28;20082;-76
2023/09/08 09:34:22;;;;;;;8.13;4.70;;;;;;;30.24;100.00;101085.25;5074168;28;20031;-76
2023/09/08 09:36:49;;;;;;;15.55;5.85;;;;;;;29.53;100.00;101107.50;5074364;28;20263;-77
2023/09/08 09:39:23;;;;;;;8.30;4.78;;;;;;;30.05;100.00;101045.09;5073890;28;20487;-80
2023/09/08 09:41:53;;;;;;;9.52;5.30;;;;;;;29.72;100.00;101107.53;5056276;28;20041;-77
2023/09/08 09:44:19;;;;;;;8.63;5.37;;;;;;;29.73;100.00;101103.91;5073942;28;20035;-77
2023/09/08 09:46:48;;;;;;;8.73;5.15;;;;;;;30.28;100.00;101068.25;5073374;28;20032;-80
2023/09/08 09:49:18;;;;;;;9.15;5.15;;;;;;;30.67;100.00;101063.69;5056298;28;20020;-80
2023/09/08 09:51:47;;;;;;;7.82;5.18;;;;;;;31.22;100.00;101048.75;5073813;28;20025;-75
2023/09/08 09:54:12;;;;;;;10.05;5.07;;;;;;;29.63;100.00;101089.13;5073566;28;20043;-77
2023/09/08 09:56:39;;;;;;;7.32;5.10;;;;;;;29.94;100.00;101027.69;5073706;28;20028;-77
2023/09/08 09:59:06;;;;;;;13.77;5.55;;;;;;;29.28;100.00;100992.66;5073515;28;20028;-71
2023/09/08 10:01:32;;;;;;;10.32;5.38;;;;;;;30.91;100.00;100979.09;5075967;28;20119;-76
2023/09/08 10:03:58;;;;;;;7.30;4.65;;;;;;;30.21;100.00;101024.31;5093993;28;20039;-75
2023/09/08 10:06:25;;;;;;;7.43;5.07;;;;;;;31.10;100.00;101023.66;5085308;28;20024;-77
2023/09/08 10:08:51;;;;;;;7.22;5.55;;;;;;;29.84;100.00;101081.97;5073366;28;20116;-76
2023/09/08 10:11:19;;;;;;;9.70;4.90;;;;;;;30.07;100.00;101016.91;5073252;28;20016;-77
2023/09/08 10:13:49;;;;;;;10.45;5.18;;;;;;;30.67;100.00;101056.66;5071988;28;20482;-79
2023/09/08 10:16:19;;;;;;;7.68;5.05;;;;;;;29.76;100.00;101055.63;5073572;28;20063;-78
2023/09/08 10:18:47;;;;;;;7.53;5.40;;;;;;;30.02;100.00;101085.56;5073107;28;20115;-77
2023/09/08 10:21:15;;;;;;;7.43;5.05;;;;;;;29.00;100.00;101045.81;5072797;28;20047;-77
2023/09/08 10:23:44;;;;;;;6.15;4.93;;;;;;;29.86;100.00;101080.03;5073014;28;20089;-75
2023/09/08 10:26:11;;;;;;;7.05;4.90;;;;;;;29.27;100.00;101039.97;5073030;28;20091;-74
2023/09/08 10:28:37;;;;;;;8.40;4.88;;;;;;;28.64;100.00;101041.19;5073242;28;20028;-77
2023/09/08 10:31:04;;;;;;;8.13;5.25;;;;;;;28.80;100.00;101118.28;5072394;28;20029;-74
2023/09/08 10:33:33;;;;;;;6.15;4.80;;;;;;;30.01;100.00;101077.81;5072257;28;20064;-75
2023/09/08 10:36:02;;;;;;;7.45;5.10;;;;;;;30.45;100.00;101001.03;5071741;28;20035;-76
2023/09/08 10:38:31;;;;;;;9.13;5.07;;;;;;;30.41;100.00;100981.28;5075336;28;20032;-77
2023/09/08 10:41:17;;;;;;;7.80;5.25;;;;;;;30.07;100.00;101074.66;5072538;28;20043;-74
2023/09/08 10:43:43;;;;;;;7.93;4.80;;;;;;;30.41;100.00;101049.56;5065408;28;20037;-76
2023/09/08 10:46:10;;;;;;;9.27;5.10;;;;;;;31.53;100.00;101013.25;5054989;28;20475;-77
2023/09/08 10:48:43;;;;;;;7.47;4.72;;;;;;;31.40;100.00;100995.22;5073110;28;20036;-77
2023/09/08 10:51:13;;;;;;;6.20;5.00;;;;;;;30.94;100.00;100955.16;5072158;28;20029;-80
2023/09/08 10:53:39;;;;;;;6.88;4.93;;;;;;;29.54;100.00;100999.00;5072636;28;20039;-76
2023/09/08 10:56:05;;;;;;;5.38;4.82;;;;;;;29.63;100.00;101068.16;5071882;28;20028;-76
2023/09/08 10:58:33;;;;;;;8.93;5.30;;;;;;;30.23;100.00;100975.94;5072490;28;20593;-75
2023/09/08 11:01:01;;;;;;;6.13;4.53;;;;;;;30.89;100.00;101002.06;5072698;28;20036;-75
2023/09/08 11:03:49;;;;;;;10.15;5.00;;;;;;;30.69;100.00;101011.84;5054217;28;20505;-76
2023/09/08 11:06:21;;;;;;;9.15;4.93;;;;;;;29.58;100.00;101016.13;5054476;28;20033;-75
2023/09/08 11:08:47;;;;;;;9.90;5.00;;;;;;;29.28;100.00;101029.34;5072350;28;20050;-77